Aviation Digital Data Service (ADDS)

Output produced by METARs form (1559 UTC 18 February 2019)
found at http://www.aviationweather.gov/metar/data/
 
METAR text: EPWA 181530Z 15006KT CAVOK 08/03 Q1021 NOSIG
Conditions at: EPWA (WARSAW/OKECIE , PL) observed 1530 UTC 18 February 2019
Temperature: 8.0°C (46°F)
Dewpoint: 3.0°C (37°F) [RH = 71%]
Pressure (altimeter): 30.15 inches Hg (1021.0 mb)
Winds: from the SSE (150 degrees) at 7 MPH (6 knots; 3.1 m/s)
Visibility: 6 or more miles (10+ km)
Ceiling: ceiling and visibility are OK
Clouds: unknown
Weather: no significant weather observed at this time

METAR text: EPWA 181500Z 17007KT 9999 FEW025 10/04 Q1021 NOSIG
Conditions at: EPWA (WARSAW/OKECIE , PL) observed 1500 UTC 18 February 2019
Temperature: 10.0°C (50°F)
Dewpoint: 4.0°C (39°F) [RH = 66%]
Pressure (altimeter): 30.15 inches Hg (1021.0 mb)
Winds: from the S (170 degrees) at 8 MPH (7 knots; 3.6 m/s)
Visibility: 6 or more miles (10+ km)
Ceiling: at least 12,000 feet AGL
Clouds: few clouds at 2500 feet AGL
Weather: no significant weather observed at this time

Forecast for: EPWA (WARSAW/OKECIE , PL)
Text: TAF EPWA 181430Z 1815/1915 17004KT CAVOK
Forecast period: 1500 to 1800 UTC 18 February 2019
Forecast type: FROM: standard forecast or significant change
Winds: from the S (170 degrees) at 5 MPH (4 knots; 2.1 m/s)
Visibility: 6 or more miles 10+ km)
Ceiling: unknown
Clouds: missing
Weather: NSW  (no significant weather)
Text: BECMG 1818/1820 1500 BR
Forecast period: 1800 UTC 18 February 2019 to 0900 UTC 19 February 2019
Forecast type: BECOMING: Conditions expected to become as follows by 2000 UTC 18 February 2019
Winds: from the S (170 degrees) at 5 MPH (4 knots; 2.1 m/s)
Visibility: 0.93 miles (1.50 km)
Ceiling: unknown
Clouds: missing
Weather: BR  (mist)
Text: PROB40 1820/1908 0300 FG
Forecast period: 2000 UTC 18 February 2019 to 0800 UTC 19 February 2019
Forecast type: PROBABLE: 40 percent likelihood of the following during this time
Visibility: 0.19 miles (0.31 km)
Ceiling: unknown
Clouds: missing
Weather: FG  (fog)
Text: BECMG 1909/1912 27010KT CAVOK
Forecast period: 0900 to 1500 UTC 19 February 2019
Forecast type: BECOMING: Conditions expected to become as follows by 1200 UTC 19 February 2019
Winds: from the W (270 degrees) at 12 MPH (10 knots; 5.1 m/s)
Visibility: 6 or more miles 10+ km)
Ceiling: unknown
Clouds: missing
Weather: NSW  (no significant weather)